Catàleg de serveis del Meteocat
Campanya meteocatpedra

Dades de l'estació automàtica Tírvia

?
?
Resum diari 22:30 TU
Dades diàries de l'estació meteorològica
Temperatura mitjana 4.0 °C
Temperatura màxima 12.2 °C 12:57 TU
Temperatura mínima -0.6 °C 5:36 TU
Humitat relativa mitjana 67%
Precipitació acumulada 0.0 mm
Ratxa màxima del vent (6 m) 28.1 km/h - 317º 12:31 TU
Pressió atmosfèrica mitjana 1007.9 hPa

El tram horari està expressat en Temps Universal (TU). Cal sumar una hora en horari d'hivern i dues en horari d'estiu per passar a l'hora oficial.

Tírvia

Metadades estació meteorol´gica
Municipi Tírvia
Comarca Pallars Sobirà
Altitud 954 m
Data alta 11.01.2018
Estat actual Operativa
Dades de període
Període
TU
TM
°C
TX
°C
TN
°C
HRM
%
PPT
mm
VVM (6 m)
km/h
DVM (6 m)
graus
VVX (6 m)
km/h
PM
hPa
00:00 - 00:30 2.1 2.4 1.8 81 0.0 1.4 130 6.1 1007.8
00:30 - 01:00 1.6 2.0 1.2 83 0.0 2.2 69 7.2 1007.3
01:00 - 01:30 1.3 1.7 0.9 83 0.0 0.4 57 4.0 1007.3
01:30 - 02:00 0.5 1.0 0.1 88 0.0 1.4 20 6.1 1007.8
02:00 - 02:30 0.5 0.9 0.2 87 0.0 1.8 71 7.9 1007.6
02:30 - 03:00 0.5 0.9 0.1 86 0.0 0.7 93 5.4 1007.5
03:00 - 03:30 0.5 0.8 0.0 87 0.0 2.2 4 6.8 1007.5
03:30 - 04:00 0.3 0.6 0.0 87 0.0 2.5 65 12.6 1007.5
04:00 - 04:30 0.3 0.6 0.1 87 0.0 1.1 22 8.3 1007.5
04:30 - 05:00 -0.1 0.1 -0.3 89 0.0 0.0 228 1.8 1007.5
05:00 - 05:30 -0.1 0.2 -0.4 89 0.0 0.4 357 3.6 1007.6
05:30 - 06:00 -0.3 0.2 -0.6 91 0.0 1.1 86 5.4 1007.9
06:00 - 06:30 0.1 0.4 -0.3 89 0.0 1.1 66 6.5 1007.8
06:30 - 07:00 0.2 0.5 0.0 88 0.0 0.7 353 4.3 1008.0
07:00 - 07:30 0.3 0.8 0.0 88 0.0 2.2 151 5.0 1008.4
07:30 - 08:00 0.6 1.1 0.4 88 0.0 2.5 22 6.8 1008.6
08:00 - 08:30 1.5 2.4 0.9 85 0.0 1.4 68 4.7 1008.2
08:30 - 09:00 3.3 4.0 2.4 77 0.0 0.7 339 3.6 1007.6
09:00 - 09:30 4.2 4.5 3.8 73 0.0 0.7 287 4.7 1007.4
09:30 - 10:00 4.8 5.7 4.5 73 0.0 1.1 350 4.0 1007.3
10:00 - 10:30 6.9 7.5 5.9 65 0.0 1.1 334 5.0 1006.7
10:30 - 11:00 7.8 8.1 7.4 62 0.0 1.1 263 8.3 1006.3
11:00 - 11:30 8.9 10.9 7.7 59 0.0 2.5 233 12.2 1006.0
11:30 - 12:00 11.3 11.7 10.9 40 0.0 6.1 267 20.9 1004.8
12:00 - 12:30 11.5 11.9 11.0 34 0.0 9.4 272 26.6 1005.0
12:30 - 13:00 11.9 12.2 11.6 32 0.0 6.1 298 28.1 1004.7
13:00 - 13:30 11.5 11.8 11.3 34 0.0 9.0 300 20.5 1005.0
13:30 - 14:00 11.4 11.7 11.1 32 0.0 8.3 290 22.0 1005.1
14:00 - 14:30 10.9 11.1 10.6 34 0.0 9.0 293 23.4 1005.4
14:30 - 15:00 10.2 10.6 9.8 39 0.0 9.7 311 27.7 1006.2
15:00 - 15:30 9.6 9.8 9.2 42 0.0 7.6 318 21.2 1006.7
15:30 - 16:00 8.5 9.2 7.9 43 0.0 8.3 323 24.5 1007.2
16:00 - 16:30 7.8 7.9 7.3 44 0.0 4.7 308 16.2 1008.1
16:30 - 17:00 7.2 7.4 6.9 45 0.0 6.5 17 15.8 1008.3
17:00 - 17:30 5.7 6.9 4.4 52 0.0 2.9 74 15.8 1009.0
17:30 - 18:00 3.7 4.2 3.3 61 0.0 2.5 107 9.0 1010.3
18:00 - 18:30 3.3 3.7 3.1 63 0.0 2.9 43 13.0 1010.7
18:30 - 19:00 3.3 3.5 3.0 61 0.0 7.6 28 16.6 1010.6
19:00 - 19:30 2.7 3.4 2.1 63 0.0 1.1 274 5.4 1011.2
19:30 - 20:00 1.6 2.1 1.3 68 0.0 1.8 113 5.8 1011.4
20:00 - 20:30 1.3 1.6 1.0 70 0.0 1.8 186 6.1 1011.3
20:30 - 21:00 0.4 1.2 0.1 74 0.0 2.9 38 7.2 1011.4
21:00 - 21:30 0.3 0.7 -0.1 73 0.0 2.5 146 6.8 1011.2
21:30 - 22:00 0.4 0.6 0.1 74 0.0 1.1 45 5.8 1010.8
22:00 - 22:30 0.5 0.7 0.3 72 0.0 1.8 47 9.7 1010.3
22:30 - 23:00 (s/d) (s/d) (s/d) (s/d) (s/d) (s/d) (s/d) (s/d) (s/d)

Les dades en taronja només han passat un control de qualitat automàtic. Resta pendent la seva validació definitiva.